Stilwell, OK (74960)

7:17 AM CDT on July 26, 2014 (GMT -0500)
The Leaf PH (KOKPARKH3) Elev 814 ft | 35.77 °N, 94.91 °W | Change Station

Current weather conditions updated 13 minutes ago

Clear
Clear
79.7 °F
Feels Like 84 °F
N
6.3
Wind Variable Wind from SSW

Today is forecast to be Warmer than yesterday.

Today
High -- | Low -- °F
--% Chance of Precip.
Yesterday
High -- | Low -- °F
Precip. -- in
6:21 AM 8:27 PM
Waning Crescent, 0% visible
Pressure 29.98 in
Visibility 7.0 miles
Clouds Clear
Heat Index 84 °F
Dew Point 75 °F
Humidity 86%
Rainfall 0.00 in
Snow Depth Not available.
UV 0 out of 12
Pollen 5.10 out of 12
Air Quality Not available.
Flu Activity Not available.
METAR KTQH 261155Z AUTO 17004KT 7SM CLR 23/21 A2998 RMK AO2

More Conditions Fewer Conditions

Pressure 29.98 in
Visibility 7.0 miles
Clouds Clear
Heat Index 84 °F
Dew Point 75 °F
Humidity 86%
Rainfall 0.00 in
Snow Depth Not available.
UV 0 out of 12
Pollen 5.10 out of 12
Air Quality Not available.
Flu Activity Not available.
METAR KTQH 261155Z AUTO 17004KT 7SM CLR 23/21 A2998 RMK AO2

More Conditions Fewer Conditions

10-Day Weather Forecast

Almanac

Astronomy

Jul. 26, 2014 Rise Set
Actual Time 6:21 AM CDT 8:27 PM CDT
Civil Twilight 5:53 AM CDT 8:56 PM CDT
Nautical Twilight 5:18 AM CDT 9:31 PM CDT
Astronomical Twilight 4:40 AM CDT 10:08 PM CDT
Moon 6:12 AM CDT 8:06 PM CDT
Length of Visible Light 15h 03m
Length of Day
14h 06m
Tomorrow will be 1m 32s shorter.
Waning Crescent, 0% of the Moon is Illuminated
Today
Waning Crescent
Jul 26
New
Aug 3
First Quarter
Aug 10
Full
Aug 17
Last Quarter

Today's Extremes

State Highs State Lows

Community

WunderPhotos

Upload Photos

1,737,551 photos uploaded!

Nearby

Snow Depth

Station Depth Elevation
No new snow has been reported.

Earthquake Activity

City Distance Mag. Time & Date
No recent earthquake activity has been reported nearby.
Minimum magnitude displayed is 2.5.

Coastal Water Temperatures

Place Temperature
No Stations Reporting

Nearby Weather Stations

Station Location Temp. Heat Index Dew Point Humidity Wind Precip. Elev Updated Type
The Leaf PH, Park Hill, OK 79.7 °F 84 °F 75 °F 86% SSW  at  6.3 mph - / hr 814 ft 7:04 AM CDT Normal
Prairie Grove, AR 76.5 °F 78 °F 71 °F 83% SSW  at  4.0 mph 0.00 in / hr 1385 ft 7:06 AM CDT Normal
Hwy 170, West Fork, AR 70.7 °F - 70 °F 98% WSW  at  0.0 mph 0.00 in / hr 1625 ft 7:17 AM CDT Rapid Fire

Show More Stations Show Fewer Stations